Time;durP1;ratioP1;P1;durP2;ratioP2;P2;SDS_P1;SDS_P2;PMS_P1;PMS_P2;Temp;Humidity;BMP_temperature;BMP_pressure;BME280_temperature;BME280_humidity;BME280_pressure;Samples;Min_cycle;Max_cycle;Signal;HPM_P1;HPM_P2
2023/02/24 00:00:36;;;;;;;14.85;8.70;;;;;;;13.13;100.00;95842.97;5099918;27;20071;-48
2023/02/24 00:03:09;;;;;;;16.40;8.82;;;;;;;12.99;100.00;95828.66;5093990;27;20082;-41
2023/02/24 00:05:43;;;;;;;14.23;7.57;;;;;;;12.50;100.00;95822.81;5098200;27;20063;-46
2023/02/24 00:08:11;;;;;;;14.23;8.20;;;;;;;13.11;100.00;95807.09;5096861;27;20300;-46
2023/02/24 00:10:40;;;;;;;15.52;8.23;;;;;;;13.05;100.00;95804.16;5107644;27;20075;-47
2023/02/24 00:13:10;;;;;;;15.07;8.10;;;;;;;13.12;100.00;95808.75;5104244;27;20091;-44
2023/02/24 00:15:40;;;;;;;13.93;8.15;;;;;;;12.91;100.00;95820.78;5107478;27;20079;-44
2023/02/24 00:18:09;;;;;;;14.00;8.57;;;;;;;12.95;100.00;95816.78;5102926;27;20086;-43
2023/02/24 00:20:37;;;;;;;13.65;8.20;;;;;;;12.89;100.00;95820.13;5101046;27;20614;-43
2023/02/24 00:23:08;;;;;;;12.93;7.97;;;;;;;13.06;100.00;95805.78;5105853;27;20602;-47
2023/02/24 00:25:36;;;;;;;16.83;9.07;;;;;;;12.92;100.00;95803.91;5097248;27;20106;-44
2023/02/24 00:28:05;;;;;;;12.85;7.70;;;;;;;13.07;100.00;95798.66;5096656;27;20078;-47
2023/02/24 00:30:33;;;;;;;15.82;8.50;;;;;;;12.86;100.00;95812.53;5099465;28;20515;-44
2023/02/24 00:33:03;;;;;;;18.75;8.63;;;;;;;12.49;100.00;95803.50;5093892;28;20508;-44
2023/02/24 00:35:33;;;;;;;13.73;8.18;;;;;;;12.36;100.00;95805.88;5094050;28;20515;-44
2023/02/24 00:38:02;;;;;;;20.83;9.13;;;;;;;12.50;100.00;95807.78;5094890;28;20078;-44
2023/02/24 00:40:30;;;;;;;18.70;8.98;;;;;;;12.52;100.00;95797.84;5101139;28;20078;-44
2023/02/24 00:42:58;;;;;;;16.70;9.38;;;;;;;12.93;100.00;95800.25;5100651;28;20055;-46
2023/02/24 00:45:29;;;;;;;13.27;8.00;;;;;;;13.04;100.00;95799.03;5097593;28;20067;-45
2023/02/24 00:47:58;;;;;;;15.95;8.60;;;;;;;13.13;100.00;95797.16;5099842;28;20079;-44
2023/02/24 00:50:27;;;;;;;15.20;8.98;;;;;;;13.03;100.00;95790.25;5097603;28;20079;-43
2023/02/24 00:52:56;;;;;;;17.88;8.82;;;;;;;12.83;100.00;95784.63;5097207;28;20197;-46
2023/02/24 00:55:26;;;;;;;15.88;8.32;;;;;;;13.01;100.00;95786.16;5100992;28;20083;-43
2023/02/24 00:57:55;;;;;;;15.30;8.23;;;;;;;12.93;100.00;95783.56;5096748;28;20087;-42
2023/02/24 01:00:23;;;;;;;17.58;9.15;;;;;;;13.09;100.00;95779.97;5092700;28;20555;-42
2023/02/24 01:02:51;;;;;;;16.95;9.02;;;;;;;12.56;100.00;95778.00;5097653;28;20081;-44
2023/02/24 01:05:20;;;;;;;17.65;8.75;;;;;;;13.01;100.00;95773.75;5100364;28;20549;-46
2023/02/24 01:07:50;;;;;;;17.98;8.18;;;;;;;13.05;100.00;95772.41;5100782;28;20083;-45
2023/02/24 01:10:21;;;;;;;13.85;8.23;;;;;;;13.00;100.00;95773.91;5101220;28;20079;-44
2023/02/24 01:12:48;;;;;;;17.35;8.50;;;;;;;12.84;100.00;95774.88;5100582;28;20082;-44
2023/02/24 01:15:18;;;;;;;15.85;8.43;;;;;;;12.69;100.00;95771.31;5101758;28;20083;-46
2023/02/24 01:17:46;;;;;;;14.00;7.75;;;;;;;12.82;100.00;95776.84;5091406;28;20087;-45
2023/02/24 01:20:16;;;;;;;14.98;7.47;;;;;;;12.53;100.00;95778.34;5095832;28;20076;-42
2023/02/24 01:22:46;;;;;;;14.40;8.00;;;;;;;12.82;100.00;95767.09;5098631;28;20519;-43
2023/02/24 01:25:16;;;;;;;13.68;7.60;;;;;;;12.75;100.00;95763.50;5102211;28;20080;-46
2023/02/24 01:27:45;;;;;;;13.55;8.70;;;;;;;12.92;100.00;95764.22;5100253;28;20494;-44
2023/02/24 01:30:14;;;;;;;16.05;7.60;;;;;;;12.87;100.00;95765.72;5092304;28;20086;-48
2023/02/24 01:32:45;;;;;;;14.27;7.68;;;;;;;12.94;100.00;95762.22;5100617;28;20071;-45
2023/02/24 01:35:14;;;;;;;13.65;8.20;;;;;;;12.79;100.00;95756.84;5096948;28;20087;-48
2023/02/24 01:37:44;;;;;;;18.83;8.27;;;;;;;11.84;100.00;95764.91;5096420;28;20076;-46
2023/02/24 01:40:19;;;;;;;13.73;8.13;;;;;;;11.86;100.00;95759.44;5097830;27;20083;-42
2023/02/24 01:42:49;;;;;;;16.20;8.77;;;;;;;12.00;100.00;95766.66;5098557;28;20075;-44
2023/02/24 01:45:24;;;;;;;16.67;8.32;;;;;;;11.86;100.00;95757.63;5099991;27;20470;-50
2023/02/24 01:47:53;;;;;;;13.95;8.35;;;;;;;12.43;100.00;95755.75;5106935;27;20079;-45
2023/02/24 01:50:24;;;;;;;17.30;8.60;;;;;;;12.11;100.00;95750.47;5099471;27;20091;-46
2023/02/24 01:52:57;;;;;;;13.43;8.27;;;;;;;12.65;100.00;95739.09;5101259;27;20076;-43
2023/02/24 01:55:30;;;;;;;15.93;8.40;;;;;;;12.46;100.00;95739.56;5096088;27;20071;-48
2023/02/24 01:58:00;;;;;;;12.80;7.22;;;;;;;11.81;100.00;95743.25;5099823;27;20075;-47
2023/02/24 02:00:36;;;;;;;15.57;8.07;;;;;;;12.31;100.00;95742.91;5107907;27;20079;-46
2023/02/24 02:03:12;;;;;;;15.75;8.30;;;;;;;12.47;100.00;95735.91;5101639;27;20102;-42
2023/02/24 02:05:44;;;;;;;16.50;8.43;;;;;;;12.62;100.00;95730.69;5100403;27;20435;-42
2023/02/24 02:08:13;;;;;;;15.57;8.07;;;;;;;12.45;100.00;95736.06;5094613;28;20083;-44
2023/02/24 02:10:45;;;;;;;15.65;8.20;;;;;;;12.77;100.00;95723.66;5098596;27;20048;-51
2023/02/24 02:13:19;;;;;;;13.50;8.00;;;;;;;12.48;100.00;95726.97;5101889;27;20064;-41
2023/02/24 02:15:56;;;;;;;15.45;8.25;;;;;;;12.42;100.00;95725.84;5101509;27;20076;-44
2023/02/24 02:18:32;;;;;;;14.43;8.05;;;;;;;12.52;100.00;95718.50;5104733;27;20083;-46
2023/02/24 02:21:44;;;;;;;16.95;9.20;;;;;;;12.33;100.00;95711.84;5104189;27;20079;-43
2023/02/24 02:24:25;;;;;;;20.55;8.38;;;;;;;12.38;100.00;95706.03;5067601;28;20075;-42
2023/02/24 02:27:19;;;;;;;14.15;8.18;;;;;;;11.96;100.00;95719.63;5105767;27;20112;-43
2023/02/24 02:30:05;;;;;;;16.15;8.50;;;;;;;12.40;100.00;95716.44;5097173;28;20539;-40
2023/02/24 02:33:00;;;;;;;16.45;8.85;;;;;;;12.40;100.00;95709.34;5095531;27;20087;-41
2023/02/24 02:35:35;;;;;;;15.57;8.05;;;;;;;12.37;100.00;95716.78;5102740;27;20083;-43
2023/02/24 02:38:10;;;;;;;19.20;8.90;;;;;;;12.38;100.00;95713.97;5097763;27;20094;-42
2023/02/24 02:40:42;;;;;;;17.75;8.25;;;;;;;11.69;100.00;95716.38;5101445;27;20122;-44
2023/02/24 02:43:16;;;;;;;15.38;8.15;;;;;;;11.93;100.00;95719.97;5099490;27;20080;-47
2023/02/24 02:45:47;;;;;;;14.85;8.13;;;;;;;12.12;100.00;95711.63;5097659;28;20079;-48
2023/02/24 02:48:19;;;;;;;16.27;9.07;;;;;;;11.73;100.00;95719.50;5101109;27;20075;-46
2023/02/24 02:50:51;;;;;;;14.52;7.68;;;;;;;11.72;100.00;95715.22;5095837;27;20063;-42
2023/02/24 02:53:25;;;;;;;15.07;9.13;;;;;;;11.67;100.00;95718.38;5093430;27;20507;-50
2023/02/24 02:55:57;;;;;;;14.57;8.48;;;;;;;11.50;100.00;95716.78;5093245;27;20463;-42
2023/02/24 02:58:30;;;;;;;15.90;8.57;;;;;;;11.25;100.00;95718.59;5103879;27;20063;-48
2023/02/24 03:01:01;;;;;;;18.13;8.02;;;;;;;11.56;100.00;95716.06;5100089;27;20490;-49
2023/02/24 03:03:32;;;;;;;13.20;7.85;;;;;;;11.00;100.00;95712.53;5101923;27;20090;-44
2023/02/24 03:06:04;;;;;;;18.85;8.10;;;;;;;11.56;100.00;95708.16;5098410;27;20075;-41
2023/02/24 03:08:36;;;;;;;11.50;7.25;;;;;;;11.46;100.00;95707.50;5098594;27;20075;-44
2023/02/24 03:11:08;;;;;;;12.75;7.53;;;;;;;11.50;100.00;95709.66;5099286;27;20677;-48
2023/02/24 03:13:39;;;;;;;15.20;8.20;;;;;;;11.68;100.00;95708.63;5099005;27;20437;-44
2023/02/24 03:16:09;;;;;;;14.70;7.90;;;;;;;11.55;100.00;95712.63;5100929;27;20444;-40
2023/02/24 03:18:43;;;;;;;18.17;8.40;;;;;;;11.42;100.00;95720.22;5095887;27;20090;-48
2023/02/24 03:21:16;;;;;;;16.30;7.85;;;;;;;11.79;100.00;95709.06;5093087;27;20205;-50
2023/02/24 03:23:48;;;;;;;15.50;7.50;;;;;;;11.85;100.00;95707.63;5096337;27;20079;-47
2023/02/24 03:26:22;;;;;;;15.00;7.95;;;;;;;11.90;100.00;95702.63;5103984;27;20083;-48
2023/02/24 03:28:59;;;;;;;17.23;8.30;;;;;;;12.13;100.00;95694.78;5095798;28;20146;-44
2023/02/24 03:31:30;;;;;;;14.95;8.35;;;;;;;11.40;100.00;95701.94;5108397;27;20074;-42
2023/02/24 03:34:02;;;;;;;14.60;7.72;;;;;;;12.02;100.00;95693.34;5108430;27;20538;-42
2023/02/24 03:36:32;;;;;;;15.93;7.68;;;;;;;12.13;100.00;95688.66;5112387;27;20108;-42
2023/02/24 03:39:03;;;;;;;12.50;7.30;;;;;;;12.15;100.00;95690.16;5111243;27;20098;-43
2023/02/24 03:41:38;;;;;;;12.60;7.93;;;;;;;11.97;100.00;95695.66;5117125;27;20075;-44
2023/02/24 03:44:08;;;;;;;15.10;7.55;;;;;;;11.54;100.00;95697.78;5108506;27;20079;-41
2023/02/24 03:46:37;;;;;;;13.68;6.97;;;;;;;11.55;100.00;95693.31;5111185;27;20095;-48
2023/02/24 03:49:15;;;;;;;13.73;7.78;;;;;;;11.34;100.00;95691.22;5110799;27;20092;-44
2023/02/24 03:51:55;;;;;;;14.48;7.93;;;;;;;11.61;100.00;95682.09;5107708;27;20464;-42
2023/02/24 03:54:36;;;;;;;15.18;7.85;;;;;;;11.69;100.00;95682.03;5096022;28;20082;-47
2023/02/24 03:57:14;;;;;;;13.48;8.20;;;;;;;11.48;100.00;95689.69;5098687;27;20090;-43
2023/02/24 03:59:49;;;;;;;14.63;8.23;;;;;;;10.74;100.00;95688.97;5102215;27;20079;-46
2023/02/24 04:02:20;;;;;;;12.30;7.32;;;;;;;11.47;100.00;95685.44;5098852;27;20132;-47
2023/02/24 04:04:53;;;;;;;13.32;7.97;;;;;;;10.89;100.00;95679.41;5104451;27;20072;-48
2023/02/24 04:07:33;;;;;;;17.55;7.43;;;;;;;11.20;100.00;95676.91;5101470;27;20088;-45
2023/02/24 04:10:08;;;;;;;13.40;6.70;;;;;;;11.04;100.00;95674.28;5095491;27;20066;-53
2023/02/24 04:12:41;;;;;;;13.73;7.50;;;;;;;11.01;100.00;95670.19;5092788;28;20048;-44
2023/02/24 04:15:13;;;;;;;15.60;7.13;;;;;;;11.47;100.00;95669.59;5094892;28;20067;-43
2023/02/24 04:17:44;;;;;;;13.18;6.75;;;;;;;11.09;100.00;95675.44;5109620;27;20520;-41
2023/02/24 04:20:19;;;;;;;13.60;6.78;;;;;;;11.63;100.00;95670.34;5110012;27;20087;-44
2023/02/24 04:22:50;;;;;;;11.27;7.28;;;;;;;11.65;100.00;95667.53;5110740;27;20094;-43
2023/02/24 04:25:23;;;;;;;10.98;6.53;;;;;;;11.44;100.00;95664.63;5103667;27;20519;-46
2023/02/24 04:27:54;;;;;;;14.27;7.05;;;;;;;11.36;100.00;95662.84;5119177;27;20499;-45
2023/02/24 04:30:22;;;;;;;;;;;;;;;11.14;100.00;95664.38;5105208;28;20075;-48
2023/02/24 04:32:51;;;;;;;12.45;6.82;;;;;;;10.76;100.00;95658.78;5097777;27;19963;-48
2023/02/24 04:35:21;;;;;;;12.60;6.20;;;;;;;11.16;100.00;95644.75;5101136;28;20064;-44
2023/02/24 04:37:51;;;;;;;12.93;6.57;;;;;;;11.04;100.00;95640.78;5102640;27;20075;-47
2023/02/24 04:40:21;;;;;;;10.93;6.45;;;;;;;10.13;100.00;95644.41;5099645;27;20090;-45
2023/02/24 04:42:50;;;;;;;11.05;6.35;;;;;;;10.83;100.00;95640.50;5100993;28;20083;-46
2023/02/24 04:45:21;;;;;;;11.00;6.38;;;;;;;10.28;100.00;95641.16;5098688;27;20318;-51
2023/02/24 04:47:55;;;;;;;12.75;6.55;;;;;;;10.65;100.00;95630.13;5098085;28;21953;-45
2023/02/24 04:50:24;;;;;;;11.75;6.60;;;;;;;10.63;100.00;95632.94;5105941;28;20591;-45
2023/02/24 04:52:56;;;;;;;13.20;6.75;;;;;;;10.41;100.00;95631.78;5097044;28;20083;-43
2023/02/24 04:55:28;;;;;;;12.85;6.55;;;;;;;10.41;100.00;95629.13;5102731;28;20082;-42
2023/02/24 04:57:57;;;;;;;10.93;6.50;;;;;;;10.52;100.00;95627.97;5102869;28;20471;-45
2023/02/24 05:00:32;;;;;;;12.82;6.53;;;;;;;10.58;100.00;95631.78;5096340;28;20086;-43
2023/02/24 05:03:02;;;;;;;10.75;6.20;;;;;;;10.40;100.00;95627.50;5098315;28;20082;-44
2023/02/24 05:05:32;;;;;;;8.85;5.50;;;;;;;10.39;100.00;95628.50;5094725;28;20136;-46
2023/02/24 05:08:05;;;;;;;8.30;5.88;;;;;;;10.08;100.00;95628.25;5104959;28;20075;-45
2023/02/24 05:10:37;;;;;;;10.20;5.95;;;;;;;10.06;100.00;95632.03;5094141;28;20103;-45
2023/02/24 05:13:06;;;;;;;13.05;6.03;;;;;;;9.16;100.00;95629.06;5113067;28;20087;-42
2023/02/24 05:15:40;;;;;;;10.43;6.07;;;;;;;9.30;100.00;95631.13;5110649;27;20083;-47
2023/02/24 05:18:12;;;;;;;11.07;5.72;;;;;;;9.24;100.00;95626.47;5111609;27;20075;-45
2023/02/24 05:23:33;;;;;;;11.73;6.32;;;;;;;9.55;100.00;95612.78;5114950;27;20090;-51
2023/02/24 05:26:07;;;;;;;13.98;7.28;;;;;;;9.59;100.00;95599.16;5107391;28;20087;-45
2023/02/24 05:28:36;;;;;;;11.23;6.50;;;;;;;9.75;100.00;95596.56;5105687;27;20078;-48
2023/02/24 05:31:07;;;;;;;11.70;6.40;;;;;;;9.65;100.00;95598.53;5113697;27;20108;-42
2023/02/24 05:33:36;;;;;;;;;;;;;;;9.92;100.00;95604.53;5117044;27;20063;-46
2023/02/24 05:36:08;;;;;;;12.05;6.47;;;;;;;9.62;100.00;95593.56;5112599;27;19959;-45
2023/02/24 05:38:38;;;;;;;11.88;6.22;;;;;;;9.63;100.00;95600.47;5105169;27;20524;-43
2023/02/24 05:41:07;;;;;;;11.25;6.22;;;;;;;10.00;100.00;95588.72;5115391;27;20091;-45
2023/02/24 05:43:38;;;;;;;10.43;5.93;;;;;;;10.04;100.00;95587.41;5113208;27;20087;-46
2023/02/24 05:46:06;;;;;;;11.38;6.45;;;;;;;10.20;100.00;95579.53;5117208;27;20080;-45
2023/02/24 05:48:34;;;;;;;9.88;5.90;;;;;;;9.93;100.00;95587.72;5107963;27;20088;-48
2023/02/24 05:51:06;;;;;;;14.07;6.97;;;;;;;9.74;100.00;95586.22;5111363;27;20078;-47
2023/02/24 05:53:35;;;;;;;11.57;5.85;;;;;;;9.78;100.00;95578.81;5105532;27;20086;-49
2023/02/24 05:56:04;;;;;;;12.63;6.70;;;;;;;10.11;100.00;95580.50;5109830;27;20094;-44
2023/02/24 05:58:33;;;;;;;10.53;6.13;;;;;;;9.78;100.00;95566.47;5105760;27;20485;-46
2023/02/24 06:01:14;;;;;;;9.70;6.05;;;;;;;10.09;100.00;95565.88;5103959;27;20087;-44
2023/02/24 06:03:46;;;;;;;12.13;6.68;;;;;;;9.35;100.00;95570.13;5115256;27;20083;-50
2023/02/24 06:06:15;;;;;;;10.95;6.10;;;;;;;9.89;100.00;95568.78;5102761;27;20090;-47
2023/02/24 06:08:48;;;;;;;13.48;6.28;;;;;;;9.43;100.00;95570.16;5114712;27;20074;-44
2023/02/24 06:11:19;;;;;;;11.10;6.10;;;;;;;8.79;100.00;95580.22;5114911;27;20094;-48
2023/02/24 06:13:48;;;;;;;10.27;5.68;;;;;;;9.18;100.00;95571.84;5116545;27;20554;-45
2023/02/24 06:16:18;;;;;;;10.25;6.13;;;;;;;9.27;100.00;95576.19;5099936;27;20083;-45
2023/02/24 06:18:48;;;;;;;13.63;6.68;;;;;;;9.27;100.00;95584.91;5109610;27;20083;-45
2023/02/24 06:21:16;;;;;;;11.55;6.22;;;;;;;9.22;100.00;95589.81;5101934;27;20461;-41
2023/02/24 06:23:45;;;;;;;13.00;6.13;;;;;;;9.10;100.00;95588.44;5103382;27;20079;-45
2023/02/24 06:26:18;;;;;;;10.15;6.05;;;;;;;9.48;100.00;95592.38;5102220;28;20166;-48
2023/02/24 06:28:48;;;;;;;12.93;6.05;;;;;;;9.52;100.00;95591.06;5105773;27;20088;-44
2023/02/24 06:31:17;;;;;;;14.18;6.47;;;;;;;9.72;100.00;95586.38;5106366;27;20080;-45
2023/02/24 06:33:45;;;;;;;13.85;6.88;;;;;;;9.52;100.00;95590.25;5103973;27;20098;-42
2023/02/24 06:36:14;;;;;;;13.40;6.13;;;;;;;10.20;100.00;95589.25;5108492;27;20072;-41
2023/02/24 06:38:43;;;;;;;12.52;6.75;;;;;;;10.17;100.00;95593.03;5110349;27;20047;-47
2023/02/24 06:41:11;;;;;;;10.88;6.03;;;;;;;10.30;100.00;95582.03;5100119;27;20512;-47
2023/02/24 06:43:42;;;;;;;12.73;6.03;;;;;;;9.82;100.00;95588.03;5100598;27;20092;-49
2023/02/24 06:46:13;;;;;;;11.10;6.57;;;;;;;9.92;100.00;95584.28;5110758;27;20079;-43
2023/02/24 06:48:41;;;;;;;12.18;6.50;;;;;;;10.49;100.00;95580.88;5100374;27;20129;-45
2023/02/24 06:51:12;;;;;;;14.00;6.43;;;;;;;10.31;100.00;95583.66;5106629;27;20083;-46
2023/02/24 06:53:42;;;;;;;11.68;6.43;;;;;;;10.03;100.00;95585.75;5106930;27;20148;-49
2023/02/24 06:56:14;;;;;;;15.07;6.68;;;;;;;10.10;100.00;95588.56;5107455;27;20531;-46
2023/02/24 06:58:43;;;;;;;9.73;6.13;;;;;;;10.29;100.00;95582.19;5106775;27;20490;-44
2023/02/24 07:01:14;;;;;;;12.85;6.45;;;;;;;9.66;100.00;95583.53;5104419;27;20071;-49
2023/02/24 07:03:59;;;;;;;15.45;5.95;;;;;;;9.70;100.00;95583.09;5110846;27;20082;-43
2023/02/24 07:06:30;;;;;;;12.68;6.25;;;;;;;10.40;100.00;95580.06;5096110;28;20547;-50
2023/02/24 07:08:59;;;;;;;10.73;6.10;;;;;;;10.41;100.00;95578.25;5107793;27;20071;-47
2023/02/24 07:11:28;;;;;;;11.43;6.47;;;;;;;10.26;100.00;95585.16;5105194;27;20079;-42
2023/02/24 07:13:58;;;;;;;11.57;6.93;;;;;;;9.54;100.00;95585.66;5108768;27;20090;-46
2023/02/24 07:16:28;;;;;;;11.05;6.60;;;;;;;9.85;100.00;95579.81;5099703;28;20087;-51
2023/02/24 07:18:57;;;;;;;;;;;;;;;10.16;100.00;95572.13;5115498;27;20090;-45
2023/02/24 07:21:29;;;;;;;13.25;7.05;;;;;;;10.53;100.00;95560.28;5114458;27;19950;-47
2023/02/24 07:23:57;;;;;;;12.57;5.93;;;;;;;11.11;100.00;95559.16;5103226;27;20079;-44
2023/02/24 07:26:29;;;;;;;17.48;7.20;;;;;;;11.07;100.00;95560.50;5111561;27;20083;-47
2023/02/24 07:28:57;;;;;;;12.85;6.57;;;;;;;10.84;100.00;95561.22;5111656;27;20086;-44
2023/02/24 07:31:27;;;;;;;8.77;5.38;;;;;;;11.03;100.00;95560.00;5111485;27;20110;-42
2023/02/24 07:33:56;;;;;;;10.23;5.80;;;;;;;10.90;100.00;95563.16;5100578;27;20536;-42
2023/02/24 07:36:28;;;;;;;9.93;5.57;;;;;;;11.65;100.00;95556.63;5102300;28;20094;-43
2023/02/24 07:39:00;;;;;;;10.73;6.03;;;;;;;11.63;100.00;95551.53;5109025;27;20086;-47
2023/02/24 07:41:28;;;;;;;15.80;6.40;;;;;;;11.29;100.00;95553.69;5110825;27;20086;-45
2023/02/24 07:44:02;;;;;;;10.32;5.57;;;;;;;11.30;100.00;95556.13;5107947;27;20115;-43
2023/02/24 07:46:32;;;;;;;10.32;5.95;;;;;;;11.57;100.00;95552.22;5116607;27;20074;-44
2023/02/24 07:49:02;;;;;;;10.85;5.82;;;;;;;11.29;100.00;95556.31;5111718;27;20089;-45
2023/02/24 07:51:30;;;;;;;9.18;5.70;;;;;;;11.47;100.00;95537.59;5108677;27;20082;-45
2023/02/24 07:54:01;;;;;;;12.45;6.28;;;;;;;11.32;100.00;95537.47;5111601;27;20740;-44
2023/02/24 07:56:31;;;;;;;;;;;;;;;11.41;100.00;95534.63;5110031;27;20090;-48
2023/02/24 07:59:01;;;;;;;10.68;5.65;;;;;;;11.34;100.00;95525.75;5107959;27;19963;-44
2023/02/24 08:01:37;;;;;;;11.73;6.10;;;;;;;11.34;100.00;95527.56;5109898;27;20087;-45
2023/02/24 08:04:11;;;;;;;19.42;5.57;;;;;;;11.78;100.00;95519.09;5107329;27;20090;-48
2023/02/24 08:06:42;;;;;;;13.93;6.00;;;;;;;11.72;100.00;95522.41;5106871;27;20105;-45
2023/02/24 08:09:17;;;;;;;16.23;6.18;;;;;;;11.39;100.00;95523.44;5114434;27;23185;-47
2023/02/24 08:11:50;;;;;;;12.77;6.10;;;;;;;11.89;100.00;95516.06;5100271;27;20086;-43
2023/02/24 08:14:19;;;;;;;13.27;5.97;;;;;;;12.12;100.00;95513.44;5116703;27;20101;-47
2023/02/24 08:16:51;;;;;;;14.20;6.22;;;;;;;12.35;100.00;95508.94;5110723;27;20085;-43
2023/02/24 08:19:20;;;;;;;10.85;5.82;;;;;;;12.00;100.00;95509.53;5110852;27;20152;-45
2023/02/24 08:21:51;;;;;;;11.48;6.43;;;;;;;11.54;100.00;95517.41;5107575;27;20653;-47
2023/02/24 08:24:22;;;;;;;13.85;6.32;;;;;;;11.65;100.00;95507.25;5104976;27;20527;-45
2023/02/24 08:27:03;;;;;;;10.90;5.90;;;;;;;12.14;100.00;95503.47;5116889;27;20075;-44
2023/02/24 08:29:38;;;;;;;13.70;6.18;;;;;;;12.46;100.00;95502.41;5097221;27;20112;-52
2023/02/24 08:32:09;;;;;;;12.85;6.40;;;;;;;12.90;100.00;95498.94;5113960;27;20730;-42
2023/02/24 08:34:38;;;;;;;14.77;6.18;;;;;;;13.09;100.00;95499.41;5101262;27;20090;-44
2023/02/24 08:37:06;;;;;;;11.98;6.45;;;;;;;12.68;100.00;95502.50;5115528;27;20083;-48
2023/02/24 08:39:35;;;;;;;13.68;6.70;;;;;;;12.91;100.00;95489.22;5106164;27;20083;-46
2023/02/24 08:42:03;;;;;;;11.82;6.60;;;;;;;13.47;100.00;95490.34;5105872;27;20087;-44
2023/02/24 08:44:33;;;;;;;16.23;6.85;;;;;;;13.12;100.00;95484.00;5104376;28;20772;-44
2023/02/24 08:47:03;;;;;;;15.18;6.85;;;;;;;13.32;100.00;95486.06;5110461;27;20080;-48
2023/02/24 08:49:33;;;;;;;17.08;7.38;;;;;;;13.91;100.00;95480.63;5103337;28;20485;-50
2023/02/24 08:52:06;;;;;;;14.13;6.80;;;;;;;14.10;100.00;95479.97;5116262;27;20083;-45
2023/02/24 08:54:44;;;;;;;14.90;7.35;;;;;;;13.19;100.00;95484.06;5113314;27;20091;-52
2023/02/24 08:57:16;;;;;;;16.75;7.28;;;;;;;13.99;100.00;95483.94;5105382;27;20086;-48
2023/02/24 08:59:48;;;;;;;14.50;7.55;;;;;;;13.67;100.00;95481.81;5113833;27;20090;-50
2023/02/24 09:02:23;;;;;;;17.08;7.80;;;;;;;13.63;100.00;95481.34;5107107;27;20082;-48
2023/02/24 09:04:54;;;;;;;18.00;7.45;;;;;;;14.42;100.00;95477.81;5115792;27;20090;-44
2023/02/24 09:07:24;;;;;;;14.60;6.60;;;;;;;14.05;100.00;95482.38;5103669;27;20523;-45
2023/02/24 09:09:55;;;;;;;13.07;6.68;;;;;;;13.85;100.00;95484.03;5108741;28;20083;-44
2023/02/24 09:12:24;;;;;;;;;;;;;;;13.83;100.00;95476.25;5107882;27;20548;-50
2023/02/24 09:14:56;;;;;;;20.80;8.38;;;;;;;13.61;100.00;95474.59;5109024;27;20399;-45
2023/02/24 09:17:49;;;;;;;20.90;6.70;;;;;;;14.08;100.00;95470.59;5110866;27;20461;-47
2023/02/24 09:23:19;;;;;;;15.10;8.35;;;;;;;13.79;100.00;95464.38;5110001;27;20083;-47
2023/02/24 09:25:49;;;;;;;14.50;7.80;;;;;;;14.57;100.00;95459.97;5116047;27;20082;-49
2023/02/24 09:28:18;;;;;;;17.48;7.97;;;;;;;14.78;100.00;95460.91;5114309;27;20092;-48
2023/02/24 09:30:53;;;;;;;17.17;8.60;;;;;;;15.08;100.00;95453.53;5108807;27;20050;-47
2023/02/24 09:33:24;;;;;;;15.82;8.05;;;;;;;14.72;100.00;95446.59;5109413;27;20501;-47
2023/02/24 09:41:36;;;;;;;16.25;8.45;;;;;;;14.81;100.00;95441.94;5104281;27;20079;-45
2023/02/24 09:44:17;;;;;;;14.23;7.07;;;;;;;14.57;100.00;95444.06;5107684;27;20094;-48
2023/02/24 09:46:53;;;;;;;18.30;8.68;;;;;;;14.82;100.00;95438.28;5111117;27;20111;-45
2023/02/24 09:49:24;;;;;;;13.15;5.32;;;;;;;14.69;100.00;95431.03;5107467;27;20079;-46
2023/02/24 09:51:59;;;;;;;15.90;8.73;;;;;;;15.10;100.00;95425.75;5111771;27;20169;-45
2023/02/24 09:54:31;;;;;;;16.77;8.75;;;;;;;15.30;100.00;95417.84;5109650;27;20079;-47
2023/02/24 09:57:07;;;;;;;14.02;9.00;;;;;;;14.63;100.00;95422.06;5107911;27;20094;-46
2023/02/24 09:59:49;;;;;;;15.82;8.15;;;;;;;15.29;100.00;95415.41;5116626;27;20483;-49
2023/02/24 10:02:28;;;;;;;16.42;8.20;;;;;;;15.33;100.00;95412.16;5104781;27;20185;-47
2023/02/24 10:05:05;;;;;;;16.63;8.93;;;;;;;15.40;100.00;95414.81;5102458;27;20087;-50
2023/02/24 10:07:38;;;;;;;15.85;8.13;;;;;;;15.20;100.00;95412.09;5095293;27;20091;-47
2023/02/24 10:10:26;;;;;;;18.88;9.45;;;;;;;15.73;100.00;95400.84;5116995;27;20078;-49
2023/02/24 10:13:01;;;;;;;18.30;8.38;;;;;;;15.74;100.00;95395.28;5107929;27;20071;-46
2023/02/24 10:15:57;;;;;;;21.80;9.63;;;;;;;15.73;100.00;95400.84;5112259;27;20095;-47
2023/02/24 10:18:29;;;;;;;15.50;8.27;;;;;;;15.72;100.00;95393.84;5107222;27;20563;-49
2023/02/24 10:21:05;;;;;;;18.80;8.75;;;;;;;16.09;100.00;95385.28;5117782;27;20098;-46
2023/02/24 10:23:46;;;;;;;19.35;9.15;;;;;;;16.35;100.00;95387.13;5106468;28;20082;-43
2023/02/24 10:26:30;;;;;;;19.67;9.43;;;;;;;16.17;100.00;95391.41;5101477;27;20080;-49
2023/02/24 10:29:07;;;;;;;17.17;8.07;;;;;;;16.29;100.00;95387.94;5104819;28;20079;-43
2023/02/24 10:31:42;;;;;;;17.13;8.65;;;;;;;16.95;100.00;95376.34;5113330;27;20087;-45
2023/02/24 10:34:18;;;;;;;16.55;7.10;;;;;;;16.77;100.00;95370.88;5109950;27;20082;-46
2023/02/24 10:36:49;;;;;;;19.85;9.98;;;;;;;16.80;100.00;95371.28;5107374;27;20071;-49
2023/02/24 10:39:24;;;;;;;18.33;9.55;;;;;;;15.96;100.00;95371.16;5109032;27;20078;-49
2023/02/24 10:41:56;;;;;;;18.30;9.82;;;;;;;15.89;100.00;95371.97;5110996;27;20082;-46
2023/02/24 10:44:34;;;;;;;20.25;9.70;;;;;;;16.19;100.00;95360.94;5110592;27;20531;-52
2023/02/24 10:47:11;;;;;;;21.30;10.48;;;;;;;15.68;100.00;95363.41;5094885;27;20130;-47
2023/02/24 10:49:41;;;;;;;21.38;10.50;;;;;;;16.01;100.00;95355.44;5101643;28;20087;-51
2023/02/24 10:52:28;;;;;;;20.48;9.55;;;;;;;16.67;100.00;95351.84;5112582;27;20102;-47
2023/02/24 10:55:07;;;;;;;18.73;9.52;;;;;;;16.53;100.00;95356.38;5114890;27;20484;-43
2023/02/24 10:57:46;;;;;;;21.02;9.70;;;;;;;17.18;100.00;95346.53;5096467;27;20095;-50
2023/02/24 11:00:50;;;;;;;20.40;10.60;;;;;;;16.42;100.00;95346.38;5104705;28;20080;-51
2023/02/24 11:03:34;;;;;;;23.55;9.80;;;;;;;16.31;100.00;95340.66;5094776;27;20151;-45
2023/02/24 11:06:29;;;;;;;22.75;11.07;;;;;;;16.52;100.00;95334.28;5110056;27;20078;-46
2023/02/24 11:09:17;;;;;;;17.30;9.23;;;;;;;16.09;100.00;95336.59;5111133;27;20542;-43
2023/02/24 11:17:25;;;;;;;21.65;10.85;;;;;;;15.87;100.00;95326.19;5095634;27;20170;-45
2023/02/24 11:19:59;;;;;;;26.37;10.63;;;;;;;16.38;100.00;95312.22;5116838;27;20059;-45
2023/02/24 11:22:31;;;;;;;21.67;11.10;;;;;;;17.14;100.00;95309.88;5098594;27;20084;-47
2023/02/24 11:25:05;;;;;;;22.10;10.10;;;;;;;16.34;100.00;95300.34;5103899;28;20076;-44
2023/02/24 11:27:35;;;;;;;21.13;10.13;;;;;;;16.35;100.00;95304.63;5100280;28;20495;-50
2023/02/24 11:30:15;;;;;;;18.90;10.77;;;;;;;16.61;100.00;95293.06;5106512;27;20083;-44
2023/02/24 11:32:56;;;;;;;20.70;10.48;;;;;;;16.23;100.00;95290.34;5108382;27;20043;-50
2023/02/24 11:35:28;;;;;;;22.23;10.10;;;;;;;17.35;97.76;95285.56;5098951;27;20107;-49
2023/02/24 11:38:02;;;;;;;20.75;10.43;;;;;;;16.26;100.00;95287.25;5116534;27;20082;-51
2023/02/24 11:40:34;;;;;;;21.55;10.25;;;;;;;16.15;100.00;95279.94;5109725;27;20083;-51
2023/02/24 11:43:05;;;;;;;19.63;10.35;;;;;;;15.83;100.00;95274.47;5119075;27;20082;-51
2023/02/24 11:45:39;;;;;;;23.70;11.93;;;;;;;16.48;100.00;95268.34;5108823;27;20111;-45
2023/02/24 11:48:13;;;;;;;21.17;11.35;;;;;;;16.68;100.00;95261.09;5108833;27;20121;-45
2023/02/24 11:50:46;;;;;;;22.98;10.20;;;;;;;16.45;100.00;95251.00;5100495;28;20072;-46
2023/02/24 11:53:21;;;;;;;19.27;10.52;;;;;;;16.85;100.00;95250.81;5113097;27;20559;-46
2023/02/24 11:55:58;;;;;;;20.38;10.98;;;;;;;17.28;100.00;95242.16;5103865;27;20126;-47
2023/02/24 11:58:34;;;;;;;21.60;10.35;;;;;;;17.66;100.00;95231.38;5092964;27;20095;-48
2023/02/24 12:01:08;;;;;;;18.60;9.93;;;;;;;17.94;97.23;95233.63;5117904;27;20546;-51